Time;durP1;ratioP1;P1;durP2;ratioP2;P2;SDS_P1;SDS_P2;PMS_P1;PMS_P2;Temp;Humidity;BMP_temperature;BMP_pressure;BME280_temperature;BME280_humidity;BME280_pressure;Samples;Min_cycle;Max_cycle;Signal;HPM_P1;HPM_P2
2021/08/21 00:01:55;;;;;;;938.40;841.17;;;;;;;;;;5060445;28;20026;-76
2021/08/21 00:04:21;;;;;;;942.50;845.08;;;;;;;;;;5045320;28;20074;-76
2021/08/21 00:06:47;;;;;;;943.22;845.78;;;;;;;;;;5045694;28;20032;-76
2021/08/21 00:09:13;;;;;;;940.33;842.92;;;;;;;;;;5047864;28;20558;-76
2021/08/21 00:11:39;;;;;;;939.15;841.55;;;;;;;;;;5045099;28;20037;-75
2021/08/21 00:14:05;;;;;;;940.80;843.05;;;;;;;;;;5044161;28;20119;-76
2021/08/21 00:16:32;;;;;;;940.53;842.92;;;;;;;;;;5047157;28;20104;-76
2021/08/21 00:18:58;;;;;;;936.92;839.33;;;;;;;;;;5045434;28;20086;-75
2021/08/21 00:21:24;;;;;;;942.05;844.17;;;;;;;;;;5046507;28;20067;-76
2021/08/21 00:23:50;;;;;;;935.30;837.70;;;;;;;;;;5044533;28;20500;-75
2021/08/21 00:26:16;;;;;;;935.90;838.33;;;;;;;;;;5044583;28;20024;-76
2021/08/21 00:28:42;;;;;;;933.22;835.83;;;;;;;;;;5044918;28;20025;-75
2021/08/21 00:31:08;;;;;;;930.58;833.40;;;;;;;;;;5045768;28;20035;-75
2021/08/21 00:33:34;;;;;;;927.35;830.25;;;;;;;;;;5045109;28;20033;-75
2021/08/21 00:36:00;;;;;;;927.97;830.80;;;;;;;;;;5046806;28;20377;-76
2021/08/21 00:38:26;;;;;;;936.85;839.30;;;;;;;;;;5044155;28;20017;-75
2021/08/21 00:40:52;;;;;;;929.58;832.42;;;;;;;;;;5046328;28;20047;-76
2021/08/21 00:43:19;;;;;;;932.67;835.05;;;;;;;;;;5045720;28;20025;-76
2021/08/21 00:45:45;;;;;;;931.60;834.35;;;;;;;;;;5048979;28;20332;-76
2021/08/21 00:48:11;;;;;;;940.45;842.65;;;;;;;;;;5044822;28;20021;-76
2021/08/21 00:50:37;;;;;;;934.97;837.30;;;;;;;;;;5043965;28;20269;-76
2021/08/21 00:53:03;;;;;;;935.63;837.85;;;;;;;;;;5042091;28;20029;-75
2021/08/21 00:55:30;;;;;;;936.65;839.13;;;;;;;;;;5044456;28;20333;-75
2021/08/21 00:57:56;;;;;;;939.35;841.67;;;;;;;;;;5042298;28;20032;-75
2021/08/21 01:00:22;;;;;;;939.35;841.35;;;;;;;;;;5041408;28;20017;-75
2021/08/21 01:02:48;;;;;;;933.20;835.42;;;;;;;;;;5046610;28;20025;-76
2021/08/21 01:05:15;;;;;;;931.88;834.30;;;;;;;;;;5044392;28;20029;-75
2021/08/21 01:07:41;;;;;;;923.50;826.33;;;;;;;;;;5046793;28;20024;-75
2021/08/21 01:10:09;;;;;;;927.08;829.75;;;;;;;;;;5048060;28;20050;-75
2021/08/21 01:12:35;;;;;;;923.90;826.60;;;;;;;;;;5044552;28;20519;-75
2021/08/21 01:15:02;;;;;;;920.28;823.17;;;;;;;;;;5042669;28;20032;-76
2021/08/21 01:17:28;;;;;;;920.53;823.33;;;;;;;;;;5056982;28;20017;-75
2021/08/21 01:19:54;;;;;;;926.60;829.15;;;;;;;;;;5043704;28;20027;-75
2021/08/21 01:22:25;;;;;;;927.38;829.72;;;;;;;;;;5040815;28;20400;-76
2021/08/21 01:24:53;;;;;;;920.20;822.88;;;;;;;;;;5043986;28;20045;-76
2021/08/21 01:27:22;;;;;;;910.92;814.22;;;;;;;;;;5042354;28;20025;-75
2021/08/21 01:29:49;;;;;;;909.65;812.88;;;;;;;;;;5040255;28;20163;-75
2021/08/21 01:32:15;;;;;;;918.13;821.03;;;;;;;;;;5045213;28;20029;-76
2021/08/21 01:34:42;;;;;;;908.38;811.42;;;;;;;;;;5042403;28;20095;-75
2021/08/21 01:37:08;;;;;;;922.35;824.95;;;;;;;;;;5043744;28;20028;-75
2021/08/21 01:39:34;;;;;;;925.72;828.17;;;;;;;;;;5042832;28;20052;-75
2021/08/21 01:42:00;;;;;;;915.10;817.85;;;;;;;;;;5045499;28;20032;-76
2021/08/21 01:44:26;;;;;;;915.50;818.47;;;;;;;;;;5040445;28;20525;-75
2021/08/21 01:46:52;;;;;;;927.97;830.28;;;;;;;;;;5042794;28;20070;-75
2021/08/21 01:49:19;;;;;;;919.63;822.45;;;;;;;;;;5044172;28;20032;-75
2021/08/21 01:51:46;;;;;;;921.53;823.95;;;;;;;;;;5046957;28;20048;-77
2021/08/21 01:54:13;;;;;;;921.42;823.80;;;;;;;;;;5043382;28;20026;-77
2021/08/21 01:56:43;;;;;;;919.70;821.92;;;;;;;;;;5043350;28;20037;-76
2021/08/21 01:59:09;;;;;;;911.83;814.70;;;;;;;;;;5043386;28;20060;-76
2021/08/21 02:01:35;;;;;;;913.80;816.47;;;;;;;;;;5045113;28;20139;-74
2021/08/21 02:04:01;;;;;;;911.83;814.70;;;;;;;;;;5041289;28;20032;-74
2021/08/21 02:06:27;;;;;;;920.30;822.90;;;;;;;;;;5043137;28;20478;-75
2021/08/21 02:08:53;;;;;;;918.30;821.22;;;;;;;;;;5044966;28;20404;-75
2021/08/21 02:11:19;;;;;;;917.90;820.70;;;;;;;;;;5041802;28;20198;-74
2021/08/21 02:13:45;;;;;;;921.70;824.22;;;;;;;;;;5041701;28;20033;-74
2021/08/21 02:16:11;;;;;;;917.70;820.40;;;;;;;;;;5044200;28;20056;-73
2021/08/21 02:18:37;;;;;;;921.00;823.80;;;;;;;;;;5040685;28;20324;-73
2021/08/21 02:21:03;;;;;;;915.13;818.13;;;;;;;;;;5056826;28;20059;-74
2021/08/21 02:23:29;;;;;;;922.30;824.97;;;;;;;;;;5039744;28;20401;-75
2021/08/21 02:25:57;;;;;;;915.95;818.90;;;;;;;;;;5042076;28;20409;-74
2021/08/21 02:28:24;;;;;;;920.63;823.22;;;;;;;;;;5043319;28;20147;-76
2021/08/21 02:30:50;;;;;;;916.88;819.80;;;;;;;;;;5042302;28;20090;-75
2021/08/21 02:33:16;;;;;;;922.78;825.33;;;;;;;;;;5041694;28;20020;-75
2021/08/21 02:35:42;;;;;;;929.60;831.83;;;;;;;;;;5040886;28;20071;-74
2021/08/21 02:38:08;;;;;;;924.85;827.38;;;;;;;;;;5045661;28;20063;-74
2021/08/21 02:40:34;;;;;;;923.03;825.53;;;;;;;;;;5042972;28;20022;-74
2021/08/21 02:43:00;;;;;;;921.33;823.72;;;;;;;;;;5043080;28;20232;-73
2021/08/21 02:45:26;;;;;;;925.03;827.50;;;;;;;;;;5042298;28;20408;-75
2021/08/21 02:47:52;;;;;;;919.55;822.25;;;;;;;;;;5057906;28;20020;-74
2021/08/21 02:50:18;;;;;;;917.30;820.30;;;;;;;;;;5041665;28;20044;-75
2021/08/21 02:52:44;;;;;;;914.15;817.03;;;;;;;;;;5040853;28;20151;-75
2021/08/21 02:55:10;;;;;;;926.50;828.88;;;;;;;;;;5044713;28;20021;-75
2021/08/21 02:57:36;;;;;;;927.50;829.80;;;;;;;;;;5041466;28;20033;-74
2021/08/21 03:00:03;;;;;;;922.28;825.00;;;;;;;;;;5041644;28;20025;-74
2021/08/21 03:02:29;;;;;;;917.38;820.10;;;;;;;;;;5041300;28;20136;-75
2021/08/21 03:04:54;;;;;;;918.20;820.92;;;;;;;;;;5041160;28;20488;-74
2021/08/21 03:07:20;;;;;;;910.90;814.00;;;;;;;;;;5042127;28;20032;-75
2021/08/21 03:09:46;;;;;;;908.95;812.08;;;;;;;;;;5041353;28;20080;-74
2021/08/21 03:12:12;;;;;;;911.28;814.47;;;;;;;;;;5041584;28;20025;-74
2021/08/21 03:14:38;;;;;;;919.03;821.60;;;;;;;;;;5044726;28;20048;-74
2021/08/21 03:17:10;;;;;;;917.17;819.88;;;;;;;;;;5041357;28;20021;-75
2021/08/21 03:19:35;;;;;;;901.97;805.38;;;;;;;;;;5040990;28;20017;-74
2021/08/21 03:22:02;;;;;;;910.38;813.38;;;;;;;;;;5039662;28;20029;-74
2021/08/21 03:24:28;;;;;;;906.65;809.97;;;;;;;;;;5041332;28;20504;-75
2021/08/21 03:26:54;;;;;;;906.88;810.08;;;;;;;;;;5041985;28;20029;-74
2021/08/21 03:29:20;;;;;;;906.13;809.13;;;;;;;;;;5043351;28;20033;-75
2021/08/21 03:31:46;;;;;;;921.17;823.78;;;;;;;;;;5042028;28;20047;-74
2021/08/21 03:34:11;;;;;;;910.58;813.58;;;;;;;;;;5043592;28;20021;-74
2021/08/21 03:36:37;;;;;;;903.97;807.13;;;;;;;;;;5042510;28;20079;-74
2021/08/21 03:39:04;;;;;;;902.60;806.17;;;;;;;;;;5043377;28;20270;-74
2021/08/21 03:41:30;;;;;;;905.13;808.40;;;;;;;;;;5043983;28;20035;-74
2021/08/21 03:43:55;;;;;;;908.40;811.30;;;;;;;;;;5044975;28;20033;-74
2021/08/21 03:46:21;;;;;;;905.40;808.63;;;;;;;;;;5046154;28;20089;-74
2021/08/21 03:48:47;;;;;;;907.65;810.78;;;;;;;;;;5043493;28;20044;-74
2021/08/21 03:51:13;;;;;;;901.78;804.95;;;;;;;;;;5047683;28;20040;-75
2021/08/21 03:53:39;;;;;;;912.13;814.95;;;;;;;;;;5059499;28;20452;-74
2021/08/21 03:56:05;;;;;;;907.17;810.40;;;;;;;;;;5042936;28;20025;-73
2021/08/21 03:58:31;;;;;;;911.30;814.40;;;;;;;;;;5046319;28;20021;-74
2021/08/21 04:00:57;;;;;;;910.40;813.17;;;;;;;;;;5045306;28;20086;-75
2021/08/21 04:03:23;;;;;;;907.20;810.25;;;;;;;;;;5044223;28;20122;-75
2021/08/21 04:05:49;;;;;;;906.30;809.38;;;;;;;;;;5045085;28;20120;-74
2021/08/21 04:08:15;;;;;;;908.53;811.63;;;;;;;;;;5044999;28;20017;-75
2021/08/21 04:10:41;;;;;;;910.65;813.63;;;;;;;;;;5043069;28;20099;-75
2021/08/21 04:13:07;;;;;;;911.25;814.40;;;;;;;;;;5050501;28;20436;-75
2021/08/21 04:15:33;;;;;;;907.75;810.92;;;;;;;;;;5057971;28;20032;-74
2021/08/21 04:17:59;;;;;;;905.08;808.28;;;;;;;;;;5045796;28;20022;-75
2021/08/21 04:20:25;;;;;;;908.63;811.72;;;;;;;;;;5045209;28;20025;-74
2021/08/21 04:22:51;;;;;;;908.03;810.88;;;;;;;;;;5043064;28;20032;-74
2021/08/21 04:25:17;;;;;;;895.10;798.60;;;;;;;;;;5041375;28;20377;-75
2021/08/21 04:27:43;;;;;;;901.13;804.35;;;;;;;;;;5043552;28;20075;-75
2021/08/21 04:30:09;;;;;;;906.47;809.28;;;;;;;;;;5045193;28;20439;-75
2021/08/21 04:32:35;;;;;;;901.65;804.80;;;;;;;;;;5043924;28;20037;-74
2021/08/21 04:35:01;;;;;;;906.47;809.58;;;;;;;;;;5045334;28;20032;-74
2021/08/21 04:37:27;;;;;;;892.08;795.83;;;;;;;;;;5044777;28;20059;-74
2021/08/21 04:39:53;;;;;;;908.47;811.42;;;;;;;;;;5046252;28;20029;-75
2021/08/21 04:42:19;;;;;;;905.60;808.67;;;;;;;;;;5045673;28;20119;-74
2021/08/21 04:44:45;;;;;;;910.22;813.13;;;;;;;;;;5041865;28;20032;-75
2021/08/21 04:47:11;;;;;;;910.00;812.90;;;;;;;;;;5045332;28;20412;-75
2021/08/21 04:49:37;;;;;;;907.47;810.40;;;;;;;;;;5044414;28;20025;-75
2021/08/21 04:52:04;;;;;;;916.92;819.17;;;;;;;;;;5041653;28;20748;-75
2021/08/21 04:54:30;;;;;;;912.28;815.20;;;;;;;;;;5041745;28;20025;-74
2021/08/21 04:56:56;;;;;;;914.25;817.08;;;;;;;;;;5044409;28;20638;-74
2021/08/21 04:59:22;;;;;;;920.58;823.28;;;;;;;;;;5043812;28;20075;-75
2021/08/21 05:01:47;;;;;;;914.10;817.00;;;;;;;;;;5058852;28;20480;-74
2021/08/21 05:04:13;;;;;;;908.22;811.33;;;;;;;;;;5046826;28;20028;-74
2021/08/21 05:06:39;;;;;;;912.13;815.22;;;;;;;;;;5042544;28;20032;-76
2021/08/21 05:09:05;;;;;;;907.42;810.35;;;;;;;;;;5047380;28;20094;-76
2021/08/21 05:11:31;;;;;;;902.53;805.65;;;;;;;;;;5060310;28;20395;-76
2021/08/21 05:13:57;;;;;;;909.83;812.85;;;;;;;;;;5044130;28;20086;-74
2021/08/21 05:16:23;;;;;;;920.22;821.92;;;;;;;;;;5044361;28;20376;-76
2021/08/21 05:18:54;;;;;;;915.65;818.55;;;;;;;;;;5043341;28;20021;-74
2021/08/21 05:21:32;;;;;;;915.25;818.05;;;;;;;;;;5045385;28;20024;-74
2021/08/21 05:23:58;;;;;;;912.55;815.67;;;;;;;;;;5039608;28;20033;-74
2021/08/21 05:26:25;;;;;;;921.50;824.08;;;;;;;;;;5043229;28;20645;-74
2021/08/21 05:28:52;;;;;;;920.90;823.55;;;;;;;;;;5043781;28;20035;-75
2021/08/21 05:31:18;;;;;;;923.47;826.10;;;;;;;;;;5046337;28;20371;-74
2021/08/21 05:33:44;;;;;;;920.45;823.08;;;;;;;;;;5042047;28;20480;-75
2021/08/21 05:36:09;;;;;;;924.42;827.20;;;;;;;;;;5042374;28;20028;-74
2021/08/21 05:38:36;;;;;;;921.13;823.92;;;;;;;;;;5045161;28;20028;-75
2021/08/21 05:41:02;;;;;;;931.67;834.08;;;;;;;;;;5042131;28;20484;-74
2021/08/21 05:43:28;;;;;;;929.38;831.85;;;;;;;;;;5042273;28;20028;-75
2021/08/21 05:45:54;;;;;;;933.15;835.45;;;;;;;;;;5042085;28;20028;-75
2021/08/21 05:48:20;;;;;;;932.78;835.50;;;;;;;;;;5045821;28;20377;-74
2021/08/21 05:50:46;;;;;;;936.33;839.10;;;;;;;;;;5043711;28;20059;-75
2021/08/21 05:53:12;;;;;;;942.90;845.03;;;;;;;;;;5040555;28;20575;-75
2021/08/21 05:55:38;;;;;;;942.40;844.80;;;;;;;;;;5041817;28;20047;-76
2021/08/21 05:58:04;;;;;;;944.97;847.25;;;;;;;;;;5051844;28;20091;-75
2021/08/21 06:00:30;;;;;;;948.65;850.85;;;;;;;;;;5052475;28;20441;-76
2021/08/21 06:02:57;;;;;;;946.85;849.13;;;;;;;;;;5041945;28;20056;-74
2021/08/21 06:05:23;;;;;;;951.17;853.22;;;;;;;;;;5040466;28;20025;-75
2021/08/21 06:07:49;;;;;;;953.75;855.65;;;;;;;;;;5042286;28;20078;-76
2021/08/21 06:10:15;;;;;;;955.75;857.67;;;;;;;;;;5045929;28;20060;-76
2021/08/21 06:12:41;;;;;;;957.42;859.20;;;;;;;;;;5055371;28;20029;-76
2021/08/21 06:15:07;;;;;;;958.15;859.88;;;;;;;;;;5042371;28;20025;-76
2021/08/21 06:17:34;;;;;;;963.70;865.17;;;;;;;;;;5042458;28;20032;-76
2021/08/21 06:20:00;;;;;;;962.67;864.17;;;;;;;;;;5054485;28;20097;-76
2021/08/21 06:22:26;;;;;;;963.08;864.85;;;;;;;;;;5044656;28;20579;-76
2021/08/21 06:24:53;;;;;;;959.80;860.92;;;;;;;;;;5057081;28;20309;-76
2021/08/21 06:27:19;;;;;;;976.85;878.00;;;;;;;;;;5044747;28;20021;-77
2021/08/21 06:29:45;;;;;;;979.35;880.35;;;;;;;;;;5044396;28;20033;-76
2021/08/21 06:32:11;;;;;;;979.42;880.72;;;;;;;;;;5046733;28;20500;-77
2021/08/21 06:34:37;;;;;;;988.42;889.22;;;;;;;;;;5042972;28;20013;-77
2021/08/21 06:37:05;;;;;;;989.83;890.63;;;;;;;;;;5042250;28;20045;-78
2021/08/21 06:39:31;;;;;;;986.17;887.20;;;;;;;;;;5043419;28;20829;-78
2021/08/21 06:41:57;;;;;;;1001.90;902.08;;;;;;;;;;5057502;28;20108;-78
2021/08/21 06:44:23;;;;;;;994.72;895.70;;;;;;;;;;5051081;28;20112;-77
2021/08/21 06:46:49;;;;;;;999.00;899.83;;;;;;;;;;5047828;28;20029;-77
2021/08/21 06:49:18;;;;;;;1014.35;914.42;;;;;;;;;;5044831;28;20443;-77
2021/08/21 06:51:44;;;;;;;1004.20;904.63;;;;;;;;;;5065420;28;20663;-78
2021/08/21 06:54:14;;;;;;;1005.70;906.28;;;;;;;;;;5050490;28;20086;-77
2021/08/21 06:56:40;;;;;;;;;;;;;;;;;;5051805;28;20020;-77
2021/08/21 06:59:06;;;;;;;987.47;888.13;;;;;;;;;;5064944;28;19908;-77
2021/08/21 07:01:32;;;;;;;1002.17;902.72;;;;;;;;;;5063158;28;20075;-78
2021/08/21 07:03:58;;;;;;;1002.90;903.45;;;;;;;;;;5045010;28;20423;-77
2021/08/21 07:06:24;;;;;;;1021.75;921.35;;;;;;;;;;5051937;28;20123;-78
2021/08/21 07:08:50;;;;;;;1019.13;919.03;;;;;;;;;;5045386;28;20124;-78
2021/08/21 07:11:16;;;;;;;1021.20;921.03;;;;;;;;;;5042683;28;20053;-78
2021/08/21 07:13:44;;;;;;;1018.67;918.42;;;;;;;;;;5042060;28;20219;-79
2021/08/21 07:16:10;;;;;;;1022.78;922.53;;;;;;;;;;5049449;28;20020;-78
2021/08/21 07:18:36;;;;;;;1023.15;922.78;;;;;;;;;;5047171;28;20102;-78
2021/08/21 07:21:02;;;;;;;1023.28;923.08;;;;;;;;;;5063064;28;20025;-77
2021/08/21 07:23:28;;;;;;;1030.13;929.53;;;;;;;;;;5047568;28;20048;-80
2021/08/21 07:25:54;;;;;;;1020.35;920.17;;;;;;;;;;5045755;28;20459;-79
2021/08/21 07:28:20;;;;;;;1026.53;926.33;;;;;;;;;;5047766;28;20439;-80
2021/08/21 07:30:46;;;;;;;1031.60;930.95;;;;;;;;;;5047481;28;20523;-80
2021/08/21 07:33:13;;;;;;;1031.82;931.30;;;;;;;;;;5049884;28;20029;-80
2021/08/21 07:35:39;;;;;;;1039.60;938.75;;;;;;;;;;5056252;28;20013;-81
2021/08/21 07:38:05;;;;;;;1043.85;942.65;;;;;;;;;;5048794;28;20021;-80
2021/08/21 07:40:34;;;;;;;1044.55;943.28;;;;;;;;;;5049052;28;20124;-80
2021/08/21 07:43:01;;;;;;;1058.68;956.65;;;;;;;;;;5050963;28;20233;-84
2021/08/21 07:45:27;;;;;;;1069.38;965.75;;;;;;;;;;5053780;22;20144;-76
2021/08/21 07:47:53;;;;;;;1073.68;970.08;;;;;;;;;;5018013;28;20497;-78
2021/08/21 07:50:19;;;;;;;1078.10;974.10;;;;;;;;;;5033158;28;20355;-81
2021/08/21 07:52:46;;;;;;;1080.18;976.50;;;;;;;;;;5022790;28;20052;-80
2021/08/21 07:55:12;;;;;;;1082.20;978.22;;;;;;;;;;5032761;28;20424;-81
2021/08/21 07:57:38;;;;;;;1078.45;975.10;;;;;;;;;;5034541;28;20388;-80
2021/08/21 08:00:05;;;;;;;1100.20;995.05;;;;;;;;;;5039314;28;20026;-81
2021/08/21 08:02:31;;;;;;;1100.80;996.13;;;;;;;;;;5040402;28;20128;-81
2021/08/21 08:04:57;;;;;;;1108.57;999.40;;;;;;;;;;5022043;28;20124;-82
2021/08/21 08:07:23;;;;;;;1107.47;998.97;;;;;;;;;;5037597;28;20050;-80
2021/08/21 08:09:49;;;;;;;1123.68;999.90;;;;;;;;;;5032601;28;20021;-81
2021/08/21 08:12:15;;;;;;;1122.32;999.90;;;;;;;;;;5041953;28;20119;-82
2021/08/21 08:14:41;;;;;;;1123.63;999.90;;;;;;;;;;5024562;28;20037;-80
2021/08/21 08:17:07;;;;;;;1127.65;999.90;;;;;;;;;;5039316;28;20414;-82
2021/08/21 08:19:33;;;;;;;1124.95;999.90;;;;;;;;;;5036292;28;20041;-84
2021/08/21 08:22:00;;;;;;;1128.70;999.90;;;;;;;;;;5041574;28;20026;-81
2021/08/21 08:24:26;;;;;;;1132.95;999.90;;;;;;;;;;5022752;28;20033;-81
2021/08/21 08:26:52;;;;;;;1126.97;999.90;;;;;;;;;;5028977;28;20048;-81
2021/08/21 08:29:18;;;;;;;1134.03;999.90;;;;;;;;;;5044306;28;20096;-74
2021/08/21 08:31:45;;;;;;;1135.43;999.90;;;;;;;;;;5028450;28;20124;-72
2021/08/21 08:34:12;;;;;;;1140.00;999.90;;;;;;;;;;5026122;28;20052;-72
2021/08/21 08:36:39;;;;;;;1139.85;999.90;;;;;;;;;;5029622;28;20466;-81
2021/08/21 08:39:05;;;;;;;1146.65;999.90;;;;;;;;;;5046504;28;20464;-84
2021/08/21 08:41:32;;;;;;;1150.43;999.90;;;;;;;;;;5040813;28;20140;-81
2021/08/21 08:43:58;;;;;;;1151.90;999.90;;;;;;;;;;5044720;28;20025;-80
2021/08/21 08:46:25;;;;;;;1148.03;999.90;;;;;;;;;;5014742;28;20045;-82
2021/08/21 08:48:51;;;;;;;1151.18;999.90;;;;;;;;;;5043581;28;20037;-80
2021/08/21 08:51:17;;;;;;;1143.40;999.90;;;;;;;;;;5043759;28;20404;-82
2021/08/21 08:53:43;;;;;;;1133.45;999.90;;;;;;;;;;5042559;28;20112;-80
2021/08/21 08:56:09;;;;;;;1127.63;999.90;;;;;;;;;;5038336;28;20518;-79
2021/08/21 08:58:37;;;;;;;1132.40;999.90;;;;;;;;;;5034050;28;20053;-80
2021/08/21 09:01:03;;;;;;;1136.05;999.90;;;;;;;;;;5022636;28;20356;-81
2021/08/21 09:03:29;;;;;;;1136.13;999.90;;;;;;;;;;5042448;28;20026;-81
2021/08/21 09:05:55;;;;;;;1130.32;999.90;;;;;;;;;;5042605;28;20040;-82
2021/08/21 09:08:21;;;;;;;1128.88;999.90;;;;;;;;;;5044360;28;20362;-81
2021/08/21 09:10:47;;;;;;;1138.43;999.90;;;;;;;;;;5026172;28;20029;-82
2021/08/21 09:13:15;;;;;;;1135.25;999.90;;;;;;;;;;5043862;28;20557;-80
2021/08/21 09:15:45;;;;;;;1140.07;999.90;;;;;;;;;;5034673;28;20116;-81
2021/08/21 09:18:11;;;;;;;1143.65;999.90;;;;;;;;;;5028070;28;20036;-81
2021/08/21 09:20:52;;;;;;;1147.30;999.90;;;;;;;;;;5027243;28;20017;-81
2021/08/21 09:23:27;;;;;;;1154.35;999.90;;;;;;;;;;5043069;28;20097;-73
2021/08/21 09:26:12;;;;;;;1170.88;999.90;;;;;;;;;;5026405;28;20029;-72
2021/08/21 09:28:40;;;;;;;1168.70;999.90;;;;;;;;;;5027043;28;20056;-73
2021/08/21 09:31:10;;;;;;;1177.97;999.90;;;;;;;;;;5027034;28;20251;-73
2021/08/21 09:33:38;;;;;;;1173.03;999.90;;;;;;;;;;5028047;28;20561;-73
2021/08/21 09:36:04;;;;;;;1179.68;999.90;;;;;;;;;;5026488;28;20119;-73
2021/08/21 09:38:31;;;;;;;1171.95;999.90;;;;;;;;;;5027049;28;20068;-73
2021/08/21 09:41:03;;;;;;;1176.90;999.90;;;;;;;;;;5027828;28;20064;-74
2021/08/21 09:43:31;;;;;;;1177.63;999.90;;;;;;;;;;5027636;28;20020;-74
2021/08/21 09:46:11;;;;;;;1181.70;999.90;;;;;;;;;;5026799;28;20361;-73
2021/08/21 09:48:56;;;;;;;1183.85;999.90;;;;;;;;;;5025051;28;20108;-74
2021/08/21 09:51:32;;;;;;;1186.22;999.90;;;;;;;;;;5023061;28;20026;-73
2021/08/21 09:54:02;;;;;;;1183.90;999.90;;;;;;;;;;5025717;28;20320;-72
2021/08/21 09:56:35;;;;;;;1177.47;999.90;;;;;;;;;;5027157;28;20029;-74
2021/08/21 09:59:01;;;;;;;1189.20;999.90;;;;;;;;;;5026352;28;20071;-73
2021/08/21 10:01:28;;;;;;;1191.88;999.90;;;;;;;;;;5028264;28;20026;-73
2021/08/21 10:03:54;;;;;;;1193.72;999.90;;;;;;;;;;5022362;28;20317;-73
2021/08/21 10:06:20;;;;;;;1190.70;999.90;;;;;;;;;;5025695;28;20036;-82
2021/08/21 10:08:48;;;;;;;1199.93;999.90;;;;;;;;;;5041339;28;20037;-82
2021/08/21 10:11:14;;;;;;;1206.28;999.90;;;;;;;;;;5042958;28;20222;-81
2021/08/21 10:13:40;;;;;;;1213.13;999.90;;;;;;;;;;5042331;28;20338;-82
2021/08/21 10:16:12;;;;;;;1215.72;999.90;;;;;;;;;;5038080;28;20055;-80
2021/08/21 10:18:38;;;;;;;1226.15;999.90;;;;;;;;;;5025759;28;20044;-80
2021/08/21 10:21:05;;;;;;;1227.22;999.90;;;;;;;;;;5041919;28;20025;-81
2021/08/21 10:23:31;;;;;;;1228.40;999.90;;;;;;;;;;5043514;28;20254;-81
2021/08/21 10:26:27;;;;;;;1234.10;999.90;;;;;;;;;;5042716;28;20017;-81
2021/08/21 10:28:54;;;;;;;1233.10;999.90;;;;;;;;;;5018838;28;20022;-83
2021/08/21 10:31:37;;;;;;;1218.97;999.90;;;;;;;;;;5043645;28;20144;-81
2021/08/21 10:34:04;;;;;;;1217.22;999.90;;;;;;;;;;5026676;28;20027;-80
2021/08/21 10:36:45;;;;;;;1221.20;999.90;;;;;;;;;;5027002;28;20116;-80
2021/08/21 10:39:21;;;;;;;1220.68;999.90;;;;;;;;;;5043992;28;20118;-80
2021/08/21 10:41:48;;;;;;;1222.97;999.90;;;;;;;;;;5042913;28;20379;-81
2021/08/21 10:44:32;;;;;;;1229.82;999.90;;;;;;;;;;5043122;28;20044;-82
2021/08/21 10:46:58;;;;;;;1232.88;999.90;;;;;;;;;;5042623;28;20033;-82
2021/08/21 10:49:41;;;;;;;1230.20;999.90;;;;;;;;;;5041311;28;20036;-83
2021/08/21 10:52:09;;;;;;;1224.22;999.90;;;;;;;;;;5031557;28;20029;-82
2021/08/21 10:54:34;;;;;;;1226.35;999.90;;;;;;;;;;5040936;28;20048;-81
2021/08/21 10:57:24;;;;;;;1222.18;999.90;;;;;;;;;;5039592;28;20025;-81
2021/08/21 10:59:50;;;;;;;1210.90;999.90;;;;;;;;;;5018741;28;20034;-82
2021/08/21 11:02:31;;;;;;;1223.22;999.90;;;;;;;;;;5042016;28;20280;-81
2021/08/21 11:04:58;;;;;;;1219.50;999.90;;;;;;;;;;5042231;28;20028;-81
2021/08/21 11:07:32;;;;;;;1221.43;999.90;;;;;;;;;;5042762;28;20021;-83
2021/08/21 11:10:15;;;;;;;1212.78;999.90;;;;;;;;;;5042774;28;20112;-83
2021/08/21 11:12:45;;;;;;;1216.25;999.90;;;;;;;;;;5032812;28;20040;-84
2021/08/21 11:15:15;;;;;;;1226.80;999.90;;;;;;;;;;5041257;28;20030;-81
2021/08/21 11:17:42;;;;;;;1227.68;999.90;;;;;;;;;;5042859;28;20029;-82
2021/08/21 11:20:24;;;;;;;1226.57;999.90;;;;;;;;;;5037827;28;20341;-80
2021/08/21 11:23:09;;;;;;;1227.30;999.90;;;;;;;;;;5027777;28;20531;-85
2021/08/21 11:25:36;;;;;;;1216.28;999.90;;;;;;;;;;5023411;28;20511;-83
2021/08/21 11:28:10;;;;;;;1225.82;999.90;;;;;;;;;;5041476;28;20444;-80
2021/08/21 11:30:36;;;;;;;1231.45;999.90;;;;;;;;;;5040169;28;20030;-82
2021/08/21 11:33:08;;;;;;;1242.47;999.90;;;;;;;;;;5042822;28;20170;-84
2021/08/21 11:35:36;;;;;;;1253.07;999.90;;;;;;;;;;5039363;28;20460;-81
2021/08/21 11:38:09;;;;;;;1253.40;999.90;;;;;;;;;;5041746;28;20152;-81
2021/08/21 11:40:42;;;;;;;1260.30;999.90;;;;;;;;;;5042834;28;20452;-83
2021/08/21 11:43:55;;;;;;;;;;;;;;;;;;;;;
2021/08/21 11:46:27;;;;;;;1269.85;999.90;;;;;;;;;;5039288;28;20045;-85
2021/08/21 11:48:53;;;;;;;1283.82;999.90;;;;;;;;;;5006448;28;20038;-82
2021/08/21 11:51:22;;;;;;;1289.70;999.90;;;;;;;;;;5026525;28;20029;-84
2021/08/21 11:53:49;;;;;;;1287.88;999.90;;;;;;;;;;5022505;28;20045;-84
2021/08/21 11:56:15;;;;;;;1298.93;999.90;;;;;;;;;;5023823;28;20032;-81
2021/08/21 11:58:47;;;;;;;1290.47;999.90;;;;;;;;;;5025998;28;20315;-82
2021/08/21 12:01:14;;;;;;;1283.47;999.90;;;;;;;;;;5029960;28;20128;-82
2021/08/21 12:06:10;;;;;;;1275.82;999.90;;;;;;;;;;5031002;28;20648;-82
2021/08/21 12:08:36;;;;;;;1275.65;999.90;;;;;;;;;;5028463;28;20438;-84
2021/08/21 12:11:03;;;;;;;1272.63;999.90;;;;;;;;;;5029998;28;20025;-83
2021/08/21 12:13:35;;;;;;;1270.10;999.90;;;;;;;;;;5027559;28;20022;-84
2021/08/21 12:16:05;;;;;;;1266.15;999.90;;;;;;;;;;5024827;28;20220;-83
2021/08/21 12:18:33;;;;;;;1263.60;999.90;;;;;;;;;;5008275;28;20021;-83
2021/08/21 12:20:59;;;;;;;1258.85;999.90;;;;;;;;;;5028318;28;20029;-83
2021/08/21 12:23:25;;;;;;;1262.28;999.90;;;;;;;;;;5028910;28;20065;-83
2021/08/21 12:25:55;;;;;;;1259.72;999.90;;;;;;;;;;5028911;28;20269;-82
2021/08/21 12:28:23;;;;;;;1258.22;999.90;;;;;;;;;;5028965;28;20029;-83
2021/08/21 12:30:58;;;;;;;1260.28;999.90;;;;;;;;;;5021451;28;20086;-82
2021/08/21 12:33:44;;;;;;;1253.43;999.90;;;;;;;;;;5024207;28;20628;-83
2021/08/21 12:36:10;;;;;;;1245.30;999.90;;;;;;;;;;5028537;28;20021;-83
2021/08/21 12:38:36;;;;;;;1242.65;999.90;;;;;;;;;;5026477;28;20029;-83
2021/08/21 12:41:03;;;;;;;1249.35;999.90;;;;;;;;;;5023756;28;20050;-82
2021/08/21 12:43:29;;;;;;;1253.68;999.90;;;;;;;;;;5025827;28;20091;-84
2021/08/21 12:46:15;;;;;;;1256.07;999.90;;;;;;;;;;5022465;28;20041;-87
2021/08/21 12:48:41;;;;;;;1259.72;999.90;;;;;;;;;;5032479;28;20053;-79
2021/08/21 12:51:07;;;;;;;1268.47;999.90;;;;;;;;;;5045509;28;20071;-81
2021/08/21 12:53:33;;;;;;;1273.65;999.90;;;;;;;;;;5046893;28;20056;-80
2021/08/21 12:56:09;;;;;;;1264.53;999.90;;;;;;;;;;5048157;28;20115;-80
2021/08/21 12:58:36;;;;;;;1264.00;999.90;;;;;;;;;;5029382;28;20025;-80
2021/08/21 13:01:07;;;;;;;1264.38;999.90;;;;;;;;;;5031758;28;20025;-81
2021/08/21 13:03:33;;;;;;;1262.68;999.90;;;;;;;;;;5048942;28;20040;-80
2021/08/21 13:06:00;;;;;;;1253.57;999.90;;;;;;;;;;5047553;28;20108;-81
2021/08/21 13:08:33;;;;;;;1250.03;999.90;;;;;;;;;;5041923;28;20379;-82
2021/08/21 13:10:59;;;;;;;1249.75;999.90;;;;;;;;;;5042454;28;20459;-81
2021/08/21 13:13:24;;;;;;;1234.97;999.90;;;;;;;;;;5048479;28;20024;-81
2021/08/21 13:15:50;;;;;;;1231.40;999.90;;;;;;;;;;5047918;28;20048;-80
2021/08/21 13:18:16;;;;;;;1223.72;999.90;;;;;;;;;;5048635;28;20470;-81
2021/08/21 13:20:42;;;;;;;1217.38;999.90;;;;;;;;;;5046298;28;20169;-81
2021/08/21 13:23:08;;;;;;;1219.32;999.90;;;;;;;;;;5030516;28;20028;-81
2021/08/21 13:25:34;;;;;;;1210.45;999.90;;;;;;;;;;5048427;28;20029;-82
2021/08/21 13:28:00;;;;;;;1207.13;999.90;;;;;;;;;;5048401;28;20341;-82
2021/08/21 13:30:26;;;;;;;1204.97;999.90;;;;;;;;;;5048393;28;20032;-80
2021/08/21 13:32:52;;;;;;;1210.40;999.90;;;;;;;;;;5033512;28;20025;-80
2021/08/21 13:35:21;;;;;;;1201.53;999.90;;;;;;;;;;5012605;28;20400;-81
2021/08/21 13:37:49;;;;;;;1203.50;999.90;;;;;;;;;;5021513;28;20025;-81
2021/08/21 13:40:15;;;;;;;1204.45;999.90;;;;;;;;;;5029045;28;20026;-80
2021/08/21 13:42:41;;;;;;;1206.90;999.90;;;;;;;;;;5035748;28;20033;-81
2021/08/21 13:45:07;;;;;;;1201.45;999.90;;;;;;;;;;5030859;28;20040;-81
2021/08/21 13:47:33;;;;;;;1209.18;999.90;;;;;;;;;;5047523;28;20526;-81
2021/08/21 13:49:59;;;;;;;1207.70;999.90;;;;;;;;;;5046073;28;20091;-81
2021/08/21 13:52:25;;;;;;;1207.93;999.90;;;;;;;;;;5045160;28;20120;-81
2021/08/21 13:54:51;;;;;;;1206.70;999.90;;;;;;;;;;5029334;28;20033;-80